This is the latest recevied weather packets stored in our database for station/object WC4PEM-11. If no packets are shown the sender has not sent any weather packets the latest 10 day(s).
| Time | Temp. | Humidity | Pressure | Rain* | Wind** | Luminosity | Snow |
|---|---|---|---|---|---|---|---|
| 1778012884 | 30.56° C | 46% | 1014.3 hPa | 0 mm | - | - | - |
| 1778012682 | 30.56° C | 46% | 1014.2 hPa | 0 mm | - | - | - |
| 1778012584 | 30.56° C | 46% | 1014.2 hPa | 0 mm | - | - | - |
| 1778012332 | 30.56° C | 46% | 1014.2 hPa | 0 mm | - | - | - |
| 1778012284 | 30.56° C | 46% | 1014.2 hPa | 0 mm | - | - | - |
| 1778011984 | 31.11° C | 47% | 1014.2 hPa | 0 mm | - | - | - |
| 1778011684 | 31.11° C | 46% | 1014.1 hPa | 0 mm | - | - | - |
| 1778011384 | 31.67° C | 45% | 1014.1 hPa | 0 mm | - | - | - |
| 1778011084 | 31.67° C | 46% | 1014.1 hPa | 0 mm | - | - | - |
| 1778010784 | 31.11° C | 45% | 1014.3 hPa | 0 mm | - | - | - |
| 1778010484 | 31.11° C | 45% | 1014.2 hPa | 0 mm | - | - | - |
| 1778010184 | 31.67° C | 46% | 1014.3 hPa | 0 mm | - | - | - |
| 1778009884 | 31.11° C | 45% | 1014.3 hPa | 0 mm | - | - | - |
| 1778009584 | 30.56° C | 47% | 1014.6 hPa | 0 mm | - | - | - |
| 1778009284 | 31.11° C | 46% | 1014.6 hPa | 0 mm | - | - | - |
| 1778008984 | 31.11° C | 46% | 1014.5 hPa | 0 mm | - | - | - |
| 1778008684 | 31.11° C | 47% | 1014.7 hPa | 0 mm | - | - | - |
| 1778008384 | 30.56° C | 47% | 1014.8 hPa | 0 mm | - | - | - |
| 1778008135 | 30° C | 51% | 1015.2 hPa | 0 mm | - | - | - |
| 1778008084 | 30.56° C | 46% | 1015 hPa | 0 mm | - | - | - |
| 1778007784 | 30.56° C | 48% | 1015 hPa | 0 mm | - | - | - |
| 1778007484 | 30.56° C | 48% | 1015 hPa | 0 mm | - | - | - |
| 1778007184 | 30° C | 50% | 1014.9 hPa | 0 mm | - | - | - |
| 1778006884 | 29.44° C | 49% | 1015 hPa | 0 mm | - | - | - |
| 1778006584 | 29.44° C | 51% | 1015.1 hPa | 0 mm | - | - | - |
* Rain latest hour (hover to see other rain measurements)
** Current wind speed in m/s (hover to see current wind gust speed)